sensor_id;sensor_type;location;lat;lon;timestamp;temperature;humidity
46336;DHT22;31365;48.858;8.530;2023-06-22T00:01:30;21.80;99.90
46336;DHT22;31365;48.858;8.530;2023-06-22T00:03:59;21.80;99.90
46336;DHT22;31365;48.858;8.530;2023-06-22T00:06:27;21.80;99.90
46336;DHT22;31365;48.858;8.530;2023-06-22T00:08:56;21.70;99.90
46336;DHT22;31365;48.858;8.530;2023-06-22T00:11:24;21.80;99.90
46336;DHT22;31365;48.858;8.530;2023-06-22T00:13:52;21.70;99.90
46336;DHT22;31365;48.858;8.530;2023-06-22T00:16:21;21.60;99.90
46336;DHT22;31365;48.858;8.530;2023-06-22T00:18:51;21.60;99.90
46336;DHT22;31365;48.858;8.530;2023-06-22T00:21:20;21.50;99.90
46336;DHT22;31365;48.858;8.530;2023-06-22T00:23:48;21.50;99.90
46336;DHT22;31365;48.858;8.530;2023-06-22T00:26:17;21.50;99.90
46336;DHT22;31365;48.858;8.530;2023-06-22T00:28:46;21.50;99.90
46336;DHT22;31365;48.858;8.530;2023-06-22T00:31:15;21.40;99.90
46336;DHT22;31365;48.858;8.530;2023-06-22T00:33:44;21.40;99.90
46336;DHT22;31365;48.858;8.530;2023-06-22T00:36:13;21.50;99.90
46336;DHT22;31365;48.858;8.530;2023-06-22T00:38:43;21.40;99.90
46336;DHT22;31365;48.858;8.530;2023-06-22T00:41:12;21.40;99.90
46336;DHT22;31365;48.858;8.530;2023-06-22T00:43:41;21.40;99.90
46336;DHT22;31365;48.858;8.530;2023-06-22T00:46:09;21.40;99.90
46336;DHT22;31365;48.858;8.530;2023-06-22T00:48:38;21.30;99.90
46336;DHT22;31365;48.858;8.530;2023-06-22T00:51:13;21.30;99.90
46336;DHT22;31365;48.858;8.530;2023-06-22T00:53:41;21.40;99.90
46336;DHT22;31365;48.858;8.530;2023-06-22T00:56:10;21.30;99.90
46336;DHT22;31365;48.858;8.530;2023-06-22T00:58:39;21.30;99.90
46336;DHT22;31365;48.858;8.530;2023-06-22T01:01:08;21.30;99.90
46336;DHT22;31365;48.858;8.530;2023-06-22T01:03:37;21.30;99.90
46336;DHT22;31365;48.858;8.530;2023-06-22T01:06:09;21.30;99.90
46336;DHT22;31365;48.858;8.530;2023-06-22T01:08:49;21.20;99.90
46336;DHT22;31365;48.858;8.530;2023-06-22T01:11:26;21.20;99.90
46336;DHT22;31365;48.858;8.530;2023-06-22T01:14:05;21.10;99.90
46336;DHT22;31365;48.858;8.530;2023-06-22T01:16:41;21.10;99.90
46336;DHT22;31365;48.858;8.530;2023-06-22T01:19:26;21.00;99.90
46336;DHT22;31365;48.858;8.530;2023-06-22T01:22:06;21.00;99.90
46336;DHT22;31365;48.858;8.530;2023-06-22T01:24:51;21.00;99.90
46336;DHT22;31365;48.858;8.530;2023-06-22T01:27:36;20.90;99.90
46336;DHT22;31365;48.858;8.530;2023-06-22T01:30:16;20.90;99.90
46336;DHT22;31365;48.858;8.530;2023-06-22T01:32:47;20.80;99.90
46336;DHT22;31365;48.858;8.530;2023-06-22T01:35:19;20.80;99.90
46336;DHT22;31365;48.858;8.530;2023-06-22T01:37:50;20.70;99.90
46336;DHT22;31365;48.858;8.530;2023-06-22T01:40:20;20.70;99.90
46336;DHT22;31365;48.858;8.530;2023-06-22T01:42:51;20.70;99.90
46336;DHT22;31365;48.858;8.530;2023-06-22T01:45:22;20.60;99.90
46336;DHT22;31365;48.858;8.530;2023-06-22T01:47:51;20.60;99.90
46336;DHT22;31365;48.858;8.530;2023-06-22T01:50:21;20.50;99.90
46336;DHT22;31365;48.858;8.530;2023-06-22T01:52:49;20.50;99.90
46336;DHT22;31365;48.858;8.530;2023-06-22T01:55:18;20.40;99.90
46336;DHT22;31365;48.858;8.530;2023-06-22T01:57:49;20.40;99.90
46336;DHT22;31365;48.858;8.530;2023-06-22T02:00:21;20.40;99.90
46336;DHT22;31365;48.858;8.530;2023-06-22T02:02:58;20.30;99.90
46336;DHT22;31365;48.858;8.530;2023-06-22T02:05:34;20.30;99.90
46336;DHT22;31365;48.858;8.530;2023-06-22T02:08:10;20.30;99.90
46336;DHT22;31365;48.858;8.530;2023-06-22T02:10:44;20.30;99.90
46336;DHT22;31365;48.858;8.530;2023-06-22T02:13:15;20.10;99.90
46336;DHT22;31365;48.858;8.530;2023-06-22T02:15:47;20.20;99.90
46336;DHT22;31365;48.858;8.530;2023-06-22T02:18:17;20.20;99.90
46336;DHT22;31365;48.858;8.530;2023-06-22T02:20:47;20.20;99.90
46336;DHT22;31365;48.858;8.530;2023-06-22T02:23:16;20.10;99.90
46336;DHT22;31365;48.858;8.530;2023-06-22T02:25:45;20.10;99.90
46336;DHT22;31365;48.858;8.530;2023-06-22T02:28:15;20.10;99.90
46336;DHT22;31365;48.858;8.530;2023-06-22T02:30:44;20.00;99.90
46336;DHT22;31365;48.858;8.530;2023-06-22T02:33:14;20.00;99.90
46336;DHT22;31365;48.858;8.530;2023-06-22T02:35:45;19.90;99.90
46336;DHT22;31365;48.858;8.530;2023-06-22T02:38:15;20.00;99.90
46336;DHT22;31365;48.858;8.530;2023-06-22T02:40:44;20.00;99.90
46336;DHT22;31365;48.858;8.530;2023-06-22T02:43:15;19.90;99.90
46336;DHT22;31365;48.858;8.530;2023-06-22T02:45:44;19.90;99.90
46336;DHT22;31365;48.858;8.530;2023-06-22T02:48:14;19.90;99.90
46336;DHT22;31365;48.858;8.530;2023-06-22T03:33:24;19.60;99.90
46336;DHT22;31365;48.858;8.530;2023-06-22T03:54:55;19.70;99.90
46336;DHT22;31365;48.858;8.530;2023-06-22T03:57:24;19.70;99.90
46336;DHT22;31365;48.858;8.530;2023-06-22T03:59:56;19.60;99.90
46336;DHT22;31365;48.858;8.530;2023-06-22T04:02:25;19.70;99.90
46336;DHT22;31365;48.858;8.530;2023-06-22T04:04:53;19.70;99.90
46336;DHT22;31365;48.858;8.530;2023-06-22T04:07:22;19.70;99.90
46336;DHT22;31365;48.858;8.530;2023-06-22T04:09:51;19.80;99.90
46336;DHT22;31365;48.858;8.530;2023-06-22T04:12:21;19.80;99.90
46336;DHT22;31365;48.858;8.530;2023-06-22T04:14:49;19.80;99.90
46336;DHT22;31365;48.858;8.530;2023-06-22T04:17:18;19.90;99.90
46336;DHT22;31365;48.858;8.530;2023-06-22T04:19:47;19.90;99.90
46336;DHT22;31365;48.858;8.530;2023-06-22T04:22:15;19.90;99.90
46336;DHT22;31365;48.858;8.530;2023-06-22T04:24:44;19.90;99.90
46336;DHT22;31365;48.858;8.530;2023-06-22T04:27:12;20.00;99.90
46336;DHT22;31365;48.858;8.530;2023-06-22T04:29:42;20.10;99.90
46336;DHT22;31365;48.858;8.530;2023-06-22T04:32:16;20.10;99.90
46336;DHT22;31365;48.858;8.530;2023-06-22T04:34:45;20.20;99.90
46336;DHT22;31365;48.858;8.530;2023-06-22T04:37:14;20.20;99.90
46336;DHT22;31365;48.858;8.530;2023-06-22T04:39:43;20.30;99.90
46336;DHT22;31365;48.858;8.530;2023-06-22T04:42:12;20.40;99.90
46336;DHT22;31365;48.858;8.530;2023-06-22T04:44:42;20.40;99.90
46336;DHT22;31365;48.858;8.530;2023-06-22T04:47:11;20.50;99.90
46336;DHT22;31365;48.858;8.530;2023-06-22T04:49:39;20.50;99.90
46336;DHT22;31365;48.858;8.530;2023-06-22T04:52:11;20.60;99.90
46336;DHT22;31365;48.858;8.530;2023-06-22T04:54:47;20.60;99.90
46336;DHT22;31365;48.858;8.530;2023-06-22T04:57:17;20.70;99.90
46336;DHT22;31365;48.858;8.530;2023-06-22T04:59:47;20.70;99.90
46336;DHT22;31365;48.858;8.530;2023-06-22T05:02:16;20.70;99.90
46336;DHT22;31365;48.858;8.530;2023-06-22T05:04:44;20.80;99.90
46336;DHT22;31365;48.858;8.530;2023-06-22T05:07:18;20.80;99.90
46336;DHT22;31365;48.858;8.530;2023-06-22T05:09:47;20.90;99.90
46336;DHT22;31365;48.858;8.530;2023-06-22T05:12:15;21.10;99.90
46336;DHT22;31365;48.858;8.530;2023-06-22T05:14:44;21.20;99.90
46336;DHT22;31365;48.858;8.530;2023-06-22T05:17:14;21.30;99.90
46336;DHT22;31365;48.858;8.530;2023-06-22T05:19:46;21.30;99.90
46336;DHT22;31365;48.858;8.530;2023-06-22T05:22:16;21.40;99.90
46336;DHT22;31365;48.858;8.530;2023-06-22T05:24:46;21.50;99.90
46336;DHT22;31365;48.858;8.530;2023-06-22T05:27:14;21.60;99.90
46336;DHT22;31365;48.858;8.530;2023-06-22T05:29:43;21.70;99.90
46336;DHT22;31365;48.858;8.530;2023-06-22T05:32:14;21.70;99.90
46336;DHT22;31365;48.858;8.530;2023-06-22T05:34:42;21.80;99.90
46336;DHT22;31365;48.858;8.530;2023-06-22T05:37:11;21.90;99.90
46336;DHT22;31365;48.858;8.530;2023-06-22T05:39:39;21.90;99.90
46336;DHT22;31365;48.858;8.530;2023-06-22T05:42:08;22.00;99.90
46336;DHT22;31365;48.858;8.530;2023-06-22T05:44:37;22.20;99.90
46336;DHT22;31365;48.858;8.530;2023-06-22T05:47:06;22.30;99.90
46336;DHT22;31365;48.858;8.530;2023-06-22T05:49:37;22.30;99.90
46336;DHT22;31365;48.858;8.530;2023-06-22T05:52:06;22.40;99.90
46336;DHT22;31365;48.858;8.530;2023-06-22T05:54:35;22.50;99.90
46336;DHT22;31365;48.858;8.530;2023-06-22T05:57:05;22.60;99.90
46336;DHT22;31365;48.858;8.530;2023-06-22T05:59:34;22.60;99.90
46336;DHT22;31365;48.858;8.530;2023-06-22T06:02:03;22.70;99.90
46336;DHT22;31365;48.858;8.530;2023-06-22T06:04:32;22.90;99.90
46336;DHT22;31365;48.858;8.530;2023-06-22T06:07:03;23.00;99.90
46336;DHT22;31365;48.858;8.530;2023-06-22T06:09:32;23.00;99.90
46336;DHT22;31365;48.858;8.530;2023-06-22T06:12:00;23.10;99.90
46336;DHT22;31365;48.858;8.530;2023-06-22T06:14:30;23.20;99.90
46336;DHT22;31365;48.858;8.530;2023-06-22T06:16:58;23.30;99.90
46336;DHT22;31365;48.858;8.530;2023-06-22T06:19:27;23.40;99.90
46336;DHT22;31365;48.858;8.530;2023-06-22T06:21:56;23.50;99.90
46336;DHT22;31365;48.858;8.530;2023-06-22T06:24:26;23.60;99.90
46336;DHT22;31365;48.858;8.530;2023-06-22T06:26:55;23.60;99.90
46336;DHT22;31365;48.858;8.530;2023-06-22T06:29:23;23.80;99.90
46336;DHT22;31365;48.858;8.530;2023-06-22T06:31:52;23.90;99.90
46336;DHT22;31365;48.858;8.530;2023-06-22T06:34:21;24.00;99.90
46336;DHT22;31365;48.858;8.530;2023-06-22T06:36:49;24.00;99.90
46336;DHT22;31365;48.858;8.530;2023-06-22T06:39:18;24.10;99.90
46336;DHT22;31365;48.858;8.530;2023-06-22T06:41:48;24.20;99.90
46336;DHT22;31365;48.858;8.530;2023-06-22T06:44:19;24.30;99.90
46336;DHT22;31365;48.858;8.530;2023-06-22T06:46:48;24.30;99.90
46336;DHT22;31365;48.858;8.530;2023-06-22T06:49:17;24.40;99.90
46336;DHT22;31365;48.858;8.530;2023-06-22T06:51:45;24.50;99.90
46336;DHT22;31365;48.858;8.530;2023-06-22T06:54:14;24.60;99.90
46336;DHT22;31365;48.858;8.530;2023-06-22T06:56:42;24.60;99.90
46336;DHT22;31365;48.858;8.530;2023-06-22T06:59:16;24.80;99.90
46336;DHT22;31365;48.858;8.530;2023-06-22T07:01:45;24.90;99.90
46336;DHT22;31365;48.858;8.530;2023-06-22T07:04:15;25.00;99.90
46336;DHT22;31365;48.858;8.530;2023-06-22T07:06:44;25.10;99.90
46336;DHT22;31365;48.858;8.530;2023-06-22T07:09:12;25.10;99.90
46336;DHT22;31365;48.858;8.530;2023-06-22T07:11:41;25.20;99.90
46336;DHT22;31365;48.858;8.530;2023-06-22T07:14:09;25.30;99.90
46336;DHT22;31365;48.858;8.530;2023-06-22T07:16:40;25.40;99.90
46336;DHT22;31365;48.858;8.530;2023-06-22T07:19:08;25.60;99.90
46336;DHT22;31365;48.858;8.530;2023-06-22T07:21:36;25.70;99.90
46336;DHT22;31365;48.858;8.530;2023-06-22T07:24:06;25.60;99.90
46336;DHT22;31365;48.858;8.530;2023-06-22T07:26:35;25.60;99.90
46336;DHT22;31365;48.858;8.530;2023-06-22T07:29:04;25.50;99.90
46336;DHT22;31365;48.858;8.530;2023-06-22T07:31:33;25.50;99.90
46336;DHT22;31365;48.858;8.530;2023-06-22T07:34:02;25.60;99.90
46336;DHT22;31365;48.858;8.530;2023-06-22T07:36:32;25.70;99.90
46336;DHT22;31365;48.858;8.530;2023-06-22T07:39:02;25.80;99.90
46336;DHT22;31365;48.858;8.530;2023-06-22T07:41:31;25.90;99.90
46336;DHT22;31365;48.858;8.530;2023-06-22T07:44:00;26.10;99.90
46336;DHT22;31365;48.858;8.530;2023-06-22T07:46:30;26.30;99.90
46336;DHT22;31365;48.858;8.530;2023-06-22T07:48:58;26.40;99.90
46336;DHT22;31365;48.858;8.530;2023-06-22T07:51:29;26.50;99.90
46336;DHT22;31365;48.858;8.530;2023-06-22T07:53:58;26.60;99.90
46336;DHT22;31365;48.858;8.530;2023-06-22T07:56:26;26.60;99.90
46336;DHT22;31365;48.858;8.530;2023-06-22T07:58:55;26.70;99.90
46336;DHT22;31365;48.858;8.530;2023-06-22T08:01:26;26.80;99.90
46336;DHT22;31365;48.858;8.530;2023-06-22T08:03:54;26.90;99.90
46336;DHT22;31365;48.858;8.530;2023-06-22T08:06:23;27.00;99.90
46336;DHT22;31365;48.858;8.530;2023-06-22T08:08:53;27.10;99.90
46336;DHT22;31365;48.858;8.530;2023-06-22T08:11:23;27.30;99.90
46336;DHT22;31365;48.858;8.530;2023-06-22T08:13:52;27.40;99.90
46336;DHT22;31365;48.858;8.530;2023-06-22T08:16:22;27.40;99.90
46336;DHT22;31365;48.858;8.530;2023-06-22T08:18:52;27.50;99.90
46336;DHT22;31365;48.858;8.530;2023-06-22T08:21:21;27.60;99.90
46336;DHT22;31365;48.858;8.530;2023-06-22T08:23:49;27.60;99.90
46336;DHT22;31365;48.858;8.530;2023-06-22T08:26:19;27.70;99.90
46336;DHT22;31365;48.858;8.530;2023-06-22T08:28:48;27.60;99.90
46336;DHT22;31365;48.858;8.530;2023-06-22T08:31:19;27.50;99.90
46336;DHT22;31365;48.858;8.530;2023-06-22T08:33:48;27.40;99.90
46336;DHT22;31365;48.858;8.530;2023-06-22T08:36:17;27.30;99.90
46336;DHT22;31365;48.858;8.530;2023-06-22T08:38:45;27.20;99.90
46336;DHT22;31365;48.858;8.530;2023-06-22T08:41:19;27.20;99.90
46336;DHT22;31365;48.858;8.530;2023-06-22T08:43:47;27.30;99.90
46336;DHT22;31365;48.858;8.530;2023-06-22T08:46:16;27.30;99.90
46336;DHT22;31365;48.858;8.530;2023-06-22T08:48:48;27.40;99.90
46336;DHT22;31365;48.858;8.530;2023-06-22T08:51:17;27.70;99.90
46336;DHT22;31365;48.858;8.530;2023-06-22T08:53:45;28.00;99.90
46336;DHT22;31365;48.858;8.530;2023-06-22T08:56:14;28.30;99.90
46336;DHT22;31365;48.858;8.530;2023-06-22T08:58:43;28.50;99.90
46336;DHT22;31365;48.858;8.530;2023-06-22T09:01:12;28.60;99.90
46336;DHT22;31365;48.858;8.530;2023-06-22T09:03:42;28.70;99.90
46336;DHT22;31365;48.858;8.530;2023-06-22T09:06:11;28.80;99.90
46336;DHT22;31365;48.858;8.530;2023-06-22T09:08:41;28.80;99.90
46336;DHT22;31365;48.858;8.530;2023-06-22T09:11:09;28.70;99.90
46336;DHT22;31365;48.858;8.530;2023-06-22T09:13:38;28.60;99.90
46336;DHT22;31365;48.858;8.530;2023-06-22T09:16:08;28.50;99.90
46336;DHT22;31365;48.858;8.530;2023-06-22T09:18:36;28.30;99.90
46336;DHT22;31365;48.858;8.530;2023-06-22T09:21:05;28.10;99.90
46336;DHT22;31365;48.858;8.530;2023-06-22T09:23:34;28.10;99.90
46336;DHT22;31365;48.858;8.530;2023-06-22T09:26:03;28.10;99.90
46336;DHT22;31365;48.858;8.530;2023-06-22T09:28:31;28.00;99.90
46336;DHT22;31365;48.858;8.530;2023-06-22T09:31:00;28.00;99.90
46336;DHT22;31365;48.858;8.530;2023-06-22T09:33:31;28.10;99.90
46336;DHT22;31365;48.858;8.530;2023-06-22T09:36:00;28.30;99.90
46336;DHT22;31365;48.858;8.530;2023-06-22T09:38:28;28.40;99.90
46336;DHT22;31365;48.858;8.530;2023-06-22T09:40:57;28.60;99.90
46336;DHT22;31365;48.858;8.530;2023-06-22T09:43:26;28.60;99.90
46336;DHT22;31365;48.858;8.530;2023-06-22T09:45:56;28.60;99.90
46336;DHT22;31365;48.858;8.530;2023-06-22T09:48:24;28.80;99.90
46336;DHT22;31365;48.858;8.530;2023-06-22T09:50:54;28.90;99.90
46336;DHT22;31365;48.858;8.530;2023-06-22T09:53:23;29.20;99.90
46336;DHT22;31365;48.858;8.530;2023-06-22T09:55:52;29.40;99.90
46336;DHT22;31365;48.858;8.530;2023-06-22T09:58:21;29.60;99.90
46336;DHT22;31365;48.858;8.530;2023-06-22T10:00:50;29.70;99.90
46336;DHT22;31365;48.858;8.530;2023-06-22T10:03:19;29.80;99.90
46336;DHT22;31365;48.858;8.530;2023-06-22T10:05:48;29.80;99.90
46336;DHT22;31365;48.858;8.530;2023-06-22T10:08:19;29.80;99.90
46336;DHT22;31365;48.858;8.530;2023-06-22T10:10:48;29.80;99.90
46336;DHT22;31365;48.858;8.530;2023-06-22T10:13:19;29.70;99.90
46336;DHT22;31365;48.858;8.530;2023-06-22T10:15:48;29.80;99.90
46336;DHT22;31365;48.858;8.530;2023-06-22T10:18:18;29.90;99.90
46336;DHT22;31365;48.858;8.530;2023-06-22T10:20:49;30.00;99.90
46336;DHT22;31365;48.858;8.530;2023-06-22T10:23:20;30.20;99.90
46336;DHT22;31365;48.858;8.530;2023-06-22T10:25:51;30.40;99.90
46336;DHT22;31365;48.858;8.530;2023-06-22T10:28:20;30.50;99.90
46336;DHT22;31365;48.858;8.530;2023-06-22T10:30:49;30.50;99.90
46336;DHT22;31365;48.858;8.530;2023-06-22T10:33:18;30.50;99.90
46336;DHT22;31365;48.858;8.530;2023-06-22T10:35:47;30.50;99.90
46336;DHT22;31365;48.858;8.530;2023-06-22T10:38:15;30.40;99.90
46336;DHT22;31365;48.858;8.530;2023-06-22T10:40:45;30.50;99.90
46336;DHT22;31365;48.858;8.530;2023-06-22T10:43:13;30.70;99.90
46336;DHT22;31365;48.858;8.530;2023-06-22T10:45:42;30.80;99.90
46336;DHT22;31365;48.858;8.530;2023-06-22T10:48:10;30.90;99.90
46336;DHT22;31365;48.858;8.530;2023-06-22T10:50:39;31.10;99.90
46336;DHT22;31365;48.858;8.530;2023-06-22T10:53:07;31.30;99.90
46336;DHT22;31365;48.858;8.530;2023-06-22T10:55:35;31.40;99.90
46336;DHT22;31365;48.858;8.530;2023-06-22T10:58:24;31.50;99.90
46336;DHT22;31365;48.858;8.530;2023-06-22T11:00:53;31.70;99.90
46336;DHT22;31365;48.858;8.530;2023-06-22T11:03:21;31.80;99.90
46336;DHT22;31365;48.858;8.530;2023-06-22T11:05:50;31.70;99.90
46336;DHT22;31365;48.858;8.530;2023-06-22T11:08:19;31.70;99.90
46336;DHT22;31365;48.858;8.530;2023-06-22T11:10:48;31.60;99.90
46336;DHT22;31365;48.858;8.530;2023-06-22T11:13:16;31.60;99.90
46336;DHT22;31365;48.858;8.530;2023-06-22T11:15:46;31.70;99.90
46336;DHT22;31365;48.858;8.530;2023-06-22T11:18:14;32.00;99.90
46336;DHT22;31365;48.858;8.530;2023-06-22T11:20:43;32.20;99.90
46336;DHT22;31365;48.858;8.530;2023-06-22T11:23:11;32.40;99.90
46336;DHT22;31365;48.858;8.530;2023-06-22T11:25:40;32.40;99.90
46336;DHT22;31365;48.858;8.530;2023-06-22T11:28:09;32.30;99.90
46336;DHT22;31365;48.858;8.530;2023-06-22T11:30:38;32.20;99.90
46336;DHT22;31365;48.858;8.530;2023-06-22T11:33:08;31.90;99.90
46336;DHT22;31365;48.858;8.530;2023-06-22T11:35:37;31.80;99.90
46336;DHT22;31365;48.858;8.530;2023-06-22T11:38:05;31.60;99.90
46336;DHT22;31365;48.858;8.530;2023-06-22T11:40:34;31.50;99.90
46336;DHT22;31365;48.858;8.530;2023-06-22T11:43:03;31.40;99.90
46336;DHT22;31365;48.858;8.530;2023-06-22T11:45:31;31.30;99.90
46336;DHT22;31365;48.858;8.530;2023-06-22T11:48:00;31.20;99.90
46336;DHT22;31365;48.858;8.530;2023-06-22T11:50:29;31.20;99.90
46336;DHT22;31365;48.858;8.530;2023-06-22T11:53:02;31.10;99.90
46336;DHT22;31365;48.858;8.530;2023-06-22T11:55:31;31.20;99.90
46336;DHT22;31365;48.858;8.530;2023-06-22T11:57:59;31.20;99.90
46336;DHT22;31365;48.858;8.530;2023-06-22T12:00:30;31.30;99.90
46336;DHT22;31365;48.858;8.530;2023-06-22T12:03:16;31.20;99.90
46336;DHT22;31365;48.858;8.530;2023-06-22T12:05:46;31.30;99.90
46336;DHT22;31365;48.858;8.530;2023-06-22T12:08:14;31.30;99.90
46336;DHT22;31365;48.858;8.530;2023-06-22T12:10:43;31.50;99.90
46336;DHT22;31365;48.858;8.530;2023-06-22T12:13:11;31.60;99.90
46336;DHT22;31365;48.858;8.530;2023-06-22T12:15:40;31.70;99.90
46336;DHT22;31365;48.858;8.530;2023-06-22T12:18:09;31.80;99.90
46336;DHT22;31365;48.858;8.530;2023-06-22T12:20:37;31.90;99.90
46336;DHT22;31365;48.858;8.530;2023-06-22T12:23:07;32.00;99.90
46336;DHT22;31365;48.858;8.530;2023-06-22T12:25:35;32.00;99.90
46336;DHT22;31365;48.858;8.530;2023-06-22T12:28:04;32.00;99.90
46336;DHT22;31365;48.858;8.530;2023-06-22T12:30:33;31.80;99.90
46336;DHT22;31365;48.858;8.530;2023-06-22T12:33:01;31.70;99.90
46336;DHT22;31365;48.858;8.530;2023-06-22T12:35:30;31.60;99.90
46336;DHT22;31365;48.858;8.530;2023-06-22T12:38:00;31.50;99.90
46336;DHT22;31365;48.858;8.530;2023-06-22T12:40:31;31.60;99.90
46336;DHT22;31365;48.858;8.530;2023-06-22T12:43:00;31.70;99.90
46336;DHT22;31365;48.858;8.530;2023-06-22T12:45:29;31.80;99.90
46336;DHT22;31365;48.858;8.530;2023-06-22T12:48:00;32.10;99.90
46336;DHT22;31365;48.858;8.530;2023-06-22T12:50:29;32.10;99.90
46336;DHT22;31365;48.858;8.530;2023-06-22T12:52:58;32.00;99.90
46336;DHT22;31365;48.858;8.530;2023-06-22T12:55:27;32.10;99.90
46336;DHT22;31365;48.858;8.530;2023-06-22T12:57:57;32.40;99.90
46336;DHT22;31365;48.858;8.530;2023-06-22T13:00:25;32.70;99.90
46336;DHT22;31365;48.858;8.530;2023-06-22T13:02:54;32.80;99.90
46336;DHT22;31365;48.858;8.530;2023-06-22T13:05:23;32.90;99.90
46336;DHT22;31365;48.858;8.530;2023-06-22T13:07:52;32.80;99.90
46336;DHT22;31365;48.858;8.530;2023-06-22T13:10:22;32.80;99.90
46336;DHT22;31365;48.858;8.530;2023-06-22T13:12:50;32.60;99.90
46336;DHT22;31365;48.858;8.530;2023-06-22T13:15:20;32.60;99.90
46336;DHT22;31365;48.858;8.530;2023-06-22T13:17:49;32.70;99.90
46336;DHT22;31365;48.858;8.530;2023-06-22T13:20:18;33.30;99.90
46336;DHT22;31365;48.858;8.530;2023-06-22T13:22:46;33.90;99.90
46336;DHT22;31365;48.858;8.530;2023-06-22T13:25:15;34.80;99.90
46336;DHT22;31365;48.858;8.530;2023-06-22T13:27:46;35.70;99.90
46336;DHT22;31365;48.858;8.530;2023-06-22T13:44:49;39.40;99.50
46336;DHT22;31365;48.858;8.530;2023-06-22T13:47:18;38.70;98.60
46336;DHT22;31365;48.858;8.530;2023-06-22T13:49:46;38.40;99.30
46336;DHT22;31365;48.858;8.530;2023-06-22T13:52:14;38.80;97.90
46336;DHT22;31365;48.858;8.530;2023-06-22T13:54:43;39.10;97.80
46336;DHT22;31365;48.858;8.530;2023-06-22T13:57:12;38.50;97.10
46336;DHT22;31365;48.858;8.530;2023-06-22T13:59:40;37.80;97.90
46336;DHT22;31365;48.858;8.530;2023-06-22T14:02:10;37.10;99.10
46336;DHT22;31365;48.858;8.530;2023-06-22T14:04:39;36.40;99.90
46336;DHT22;31365;48.858;8.530;2023-06-22T14:07:08;35.80;99.90
46336;DHT22;31365;48.858;8.530;2023-06-22T14:09:36;35.20;99.90
46336;DHT22;31365;48.858;8.530;2023-06-22T14:12:07;34.40;98.20
46336;DHT22;31365;48.858;8.530;2023-06-22T14:14:36;33.80;98.70
46336;DHT22;31365;48.858;8.530;2023-06-22T14:17:05;33.30;98.30
46336;DHT22;31365;48.858;8.530;2023-06-22T14:19:35;32.90;98.90
46336;DHT22;31365;48.858;8.530;2023-06-22T14:22:04;32.90;99.90
46336;DHT22;31365;48.858;8.530;2023-06-22T14:24:33;32.90;99.90
46336;DHT22;31365;48.858;8.530;2023-06-22T14:27:02;32.60;99.90
46336;DHT22;31365;48.858;8.530;2023-06-22T14:29:35;32.40;99.90
46336;DHT22;31365;48.858;8.530;2023-06-22T14:32:04;32.00;99.90
46336;DHT22;31365;48.858;8.530;2023-06-22T14:34:35;31.50;99.90
46336;DHT22;31365;48.858;8.530;2023-06-22T14:37:06;31.00;99.90
46336;DHT22;31365;48.858;8.530;2023-06-22T14:39:36;30.60;99.90
46336;DHT22;31365;48.858;8.530;2023-06-22T14:42:08;30.40;99.90
46336;DHT22;31365;48.858;8.530;2023-06-22T14:44:37;30.60;99.90
46336;DHT22;31365;48.858;8.530;2023-06-22T14:47:06;31.30;99.90
46336;DHT22;31365;48.858;8.530;2023-06-22T14:49:36;32.30;99.90
46336;DHT22;31365;48.858;8.530;2023-06-22T14:52:05;32.90;99.90
46336;DHT22;31365;48.858;8.530;2023-06-22T14:54:34;33.60;99.90
46336;DHT22;31365;48.858;8.530;2023-06-22T14:57:03;34.60;99.90
46336;DHT22;31365;48.858;8.530;2023-06-22T14:59:31;35.40;99.90
46336;DHT22;31365;48.858;8.530;2023-06-22T15:02:00;35.90;99.90
46336;DHT22;31365;48.858;8.530;2023-06-22T15:04:29;36.20;99.70
46336;DHT22;31365;48.858;8.530;2023-06-22T15:07:03;36.50;99.20
46336;DHT22;31365;48.858;8.530;2023-06-22T15:09:32;36.20;98.50
46336;DHT22;31365;48.858;8.530;2023-06-22T15:12:01;35.80;99.20
46336;DHT22;31365;48.858;8.530;2023-06-22T15:14:32;35.40;99.00
46336;DHT22;31365;48.858;8.530;2023-06-22T15:17:01;35.20;99.10
46336;DHT22;31365;48.858;8.530;2023-06-22T15:19:29;35.00;99.40
46336;DHT22;31365;48.858;8.530;2023-06-22T15:21:58;34.70;99.80
46336;DHT22;31365;48.858;8.530;2023-06-22T15:24:28;34.20;99.90
46336;DHT22;31365;48.858;8.530;2023-06-22T15:26:56;33.90;99.90
46336;DHT22;31365;48.858;8.530;2023-06-22T15:29:25;33.60;99.90
46336;DHT22;31365;48.858;8.530;2023-06-22T15:31:57;33.40;99.90
46336;DHT22;31365;48.858;8.530;2023-06-22T15:34:25;33.20;99.90
46336;DHT22;31365;48.858;8.530;2023-06-22T15:36:54;33.30;99.90
46336;DHT22;31365;48.858;8.530;2023-06-22T15:39:23;33.60;99.90
46336;DHT22;31365;48.858;8.530;2023-06-22T15:41:55;34.20;99.90
46336;DHT22;31365;48.858;8.530;2023-06-22T15:44:24;34.80;99.70
46336;DHT22;31365;48.858;8.530;2023-06-22T15:46:54;35.20;99.70
46336;DHT22;31365;48.858;8.530;2023-06-22T15:49:23;35.20;98.90
46336;DHT22;31365;48.858;8.530;2023-06-22T15:51:51;35.10;99.10
46336;DHT22;31365;48.858;8.530;2023-06-22T15:54:20;34.90;99.00
46336;DHT22;31365;48.858;8.530;2023-06-22T15:56:48;35.20;98.80
46336;DHT22;31365;48.858;8.530;2023-06-22T15:59:19;35.70;97.30
46336;DHT22;31365;48.858;8.530;2023-06-22T16:01:47;35.60;97.40
46336;DHT22;31365;48.858;8.530;2023-06-22T16:04:16;35.30;97.70
46336;DHT22;31365;48.858;8.530;2023-06-22T16:06:44;34.80;97.10
46336;DHT22;31365;48.858;8.530;2023-06-22T16:09:13;34.50;97.90
46336;DHT22;31365;48.858;8.530;2023-06-22T16:11:42;34.90;97.00
46336;DHT22;31365;48.858;8.530;2023-06-22T16:14:11;35.90;97.40
46336;DHT22;31365;48.858;8.530;2023-06-22T16:16:43;37.10;95.70
46336;DHT22;31365;48.858;8.530;2023-06-22T16:19:12;37.90;94.60
46336;DHT22;31365;48.858;8.530;2023-06-22T16:21:43;38.10;93.00
46336;DHT22;31365;48.858;8.530;2023-06-22T16:24:11;37.20;92.90
46336;DHT22;31365;48.858;8.530;2023-06-22T16:26:42;36.50;92.80
46336;DHT22;31365;48.858;8.530;2023-06-22T16:29:15;35.80;93.80
46336;DHT22;31365;48.858;8.530;2023-06-22T16:31:45;35.20;93.40
46336;DHT22;31365;48.858;8.530;2023-06-22T16:34:13;34.40;94.00
46336;DHT22;31365;48.858;8.530;2023-06-22T16:36:42;34.00;94.10
46336;DHT22;31365;48.858;8.530;2023-06-22T16:39:11;33.50;94.30
46336;DHT22;31365;48.858;8.530;2023-06-22T16:41:40;33.30;94.90
46336;DHT22;31365;48.858;8.530;2023-06-22T16:44:09;33.20;94.90
46336;DHT22;31365;48.858;8.530;2023-06-22T16:46:37;33.10;94.70
46336;DHT22;31365;48.858;8.530;2023-06-22T16:49:08;33.10;94.60
46336;DHT22;31365;48.858;8.530;2023-06-22T16:51:37;32.90;93.70
46336;DHT22;31365;48.858;8.530;2023-06-22T16:54:06;32.80;93.80
46336;DHT22;31365;48.858;8.530;2023-06-22T16:56:35;32.60;94.30
46336;DHT22;31365;48.858;8.530;2023-06-22T16:59:04;32.50;94.00
46336;DHT22;31365;48.858;8.530;2023-06-22T17:01:34;32.70;95.00